Latest Weather Observations for Loxton

IDS60801

Issued at 9:02 am CDT Tuesday 24 October 2017 (issued every 30 minutes, with the page automatically refreshed every 10 minutes)

About weather observations | Map of weather stations | Latest weather observations for SA | Other Formats
Station Details ID: 024024 Name: LOXTON RESEARCH CENTRE Lat: -34.44 Lon: 140.60 Height: 30.1 m
Data from the previous 72 hours. | See also: Recent months at Loxton
Date/Time
CDT
Temp
°C
App
Temp
°C
Dew
Point
°C
Rel
Hum
%
Delta-T
°C
Wind Press
QNH
hPa
Press
MSL
hPa
Rain since
9am
mm
Dir  Spd
km/h
Gust
km/h
Spd
kts
Gust
kts
24/09:00am 22.0 19.1 8.3 41 7.2 N 13 19 7 10 1015.7 1015.6 0.0
24/08:30am 20.9 17.7 6.7 39 7.2 N 13 20 7 11 1015.7 1015.6 0.0
24/08:00am 18.4 15.9 8.3 51 5.2 NE 11 15 6 8 1015.5 1015.4 0.0
24/07:30am 16.5 14.5 8.5 59 4.1 ENE 9 13 5 7 1015.4 1015.3 0.0
24/07:00am 15.9 13.8 8.4 61 3.8 ENE 9 13 5 7 1015.3 1015.2 0.0
24/06:30am 14.9 13.3 8.6 66 3.2 E 7 11 4 6 1015.2 1015.1 0.0
24/06:00am 15.4 12.9 8.3 62 3.6 E 11 13 6 7 1015.0 1014.9 0.0
24/05:30am 15.0 13.3 8.5 65 3.3 E 7 9 4 5 1014.9 1014.8 0.0
24/05:00am 14.7 12.6 8.3 65 3.2 E 9 11 5 6 1015.0 1014.9 0.0
24/04:30am 15.6 13.1 8.3 62 3.7 E 11 15 6 8 1014.9 1014.8 0.0
24/04:00am 15.9 13.4 8.2 60 3.9 E 11 15 6 8 1015.1 1015.0 0.0
24/03:30am 15.0 13.0 8.5 65 3.3 E 9 11 5 6 1015.1 1015.0 0.0
24/03:00am 14.6 12.5 8.4 66 3.1 E 9 13 5 7 1015.4 1015.3 0.0
24/02:30am 14.3 12.3 8.5 68 2.9 ESE 9 9 5 5 1015.5 1015.4 0.0
24/02:00am 14.9 13.3 8.6 66 3.2 ESE 7 9 4 5 1015.7 1015.6 0.0
24/01:30am 15.8 13.8 8.5 62 3.7 ESE 9 11 5 6 1015.9 1015.8 0.0
24/01:00am 15.5 13.9 8.8 64 3.4 ESE 7 11 4 6 1016.1 1016.0 0.0
24/12:30am 14.3 13.8 9.4 72 2.5 ESE 2 7 1 4 1016.3 1016.2 0.0
24/12:00am 14.7 13.7 9.0 68 2.9 ESE 4 11 2 6 1016.4 1016.3 0.0
 
Date/Time
CDT
Temp
°C
App
Temp
°C
Dew
Point
°C
Rel
Hum
%
Delta-T
°C
Wind Press
QNH
hPa
Press
MSL
hPa
Rain since
9am
mm
Dir  Spd
km/h
Gust
km/h
Spd
kts
Gust
kts
23/11:30pm 14.6 14.9 11.0 79 1.9 CALM 0 0 0 0 1016.2 1016.1 0.0
23/11:00pm 15.5 15.6 10.2 70 2.8 CALM 0 0 0 0 1016.2 1016.1 0.0
23/10:30pm 16.5 16.7 10.5 67 3.2 CALM 0 0 0 0 1016.3 1016.2 0.0
23/10:00pm 16.5 16.9 11.3 71 2.8 CALM 0 0 0 0 1016.3 1016.2 0.0
23/09:30pm 17.7 18.0 12.1 69 3.1 E 2 7 1 4 1016.0 1015.9 0.0
23/09:00pm 18.1 18.7 11.9 67 3.4 CALM 0 0 0 0 1016.0 1015.9 0.0
23/08:30pm 19.2 19.8 11.8 62 4.1 CALM 0 0 0 0 1015.8 1015.7 0.0
23/08:00pm 20.5 21.1 11.9 57 4.8 CALM 0 0 0 0 1015.6 1015.5 0.0
23/07:30pm 22.1 22.7 12.0 52 5.7 CALM 0 0 0 0 1015.6 1015.5 0.0
23/07:00pm 23.8 22.3 8.4 37 8.2 SW 6 7 3 4 1015.6 1015.5 0.0
23/06:30pm 24.6 24.2 8.1 35 8.8 CALM 0 0 0 0 1015.4 1015.3 0.0
23/06:00pm 24.7 24.2 7.7 33 9.0 CALM 0 0 0 0 1015.3 1015.2 0.0
23/05:30pm 25.2 23.5 7.4 32 9.4 WSW 6 13 3 7 1015.5 1015.4 0.0
23/05:00pm 25.2 23.3 7.4 32 9.4 SSW 7 13 4 7 1015.6 1015.5 0.0
23/04:30pm 25.4 23.2 8.0 33 9.3 WNW 9 15 5 8 1015.7 1015.6 0.0
23/04:00pm 25.3 22.1 6.7 30 9.7 W 13 19 7 10 1015.9 1015.8 0.0
23/03:30pm 24.6 23.0 7.8 34 8.9 S 6 15 3 8 1016.0 1015.9 0.0
23/03:00pm 24.1 20.9 6.7 32 9.0 WSW 13 19 7 10 1016.2 1016.1 0.0
23/02:30pm 23.5 21.5 6.9 34 8.6 W 7 17 4 9 1016.7 1016.6 0.0
23/02:00pm 23.1 20.5 7.6 37 8.1 NNE 11 17 6 9 1017.1 1017.0 0.0
23/01:30pm 22.8 21.1 8.2 39 7.7 WSW 7 13 4 7 1017.6 1017.5 0.0
23/01:00pm 21.8 20.2 8.8 43 6.9 E 7 15 4 8 1018.1 1018.0 0.0
23/12:30pm 20.3 18.6 8.2 45 6.3 W 7 17 4 9 1018.5 1018.4 0.0
23/12:00pm 19.7 17.2 8.3 47 5.9 N 11 20 6 11 1019.1 1019.0 0.0
23/11:30am 19.1 16.3 8.5 50 5.5 NW 13 20 7 11 1019.7 1019.6 0.0
23/11:00am 17.6 15.8 9.4 58 4.3 NNW 9 15 5 8 1020.0 1019.9 0.0
23/10:30am 16.6 15.2 9.7 63 3.6 NW 7 11 4 6 1020.4 1020.3 0.0
23/10:00am 15.2 14.1 10.0 71 2.7 SE 6 11 3 6 1020.5 1020.4 0.0
23/09:30am 13.3 12.1 9.6 78 1.9 SSW 6 11 3 6 1020.9 1020.8 0.0
23/09:00am 11.8 10.0 9.4 85 1.2 SE 9 15 5 8 1020.8 1020.7 0.0
23/08:30am 9.9 8.3 8.9 93 0.5 S 7 13 4 7 1021.0 1020.9 0.0
23/08:00am 8.9 6.9 8.5 97 0.2 SW 9 13 5 7 1021.0 1020.9 0.0
23/07:30am 8.3 5.7 7.9 97 0.2 WSW 11 13 6 7 1020.6 1020.5 0.0
23/07:00am 7.8 6.1 7.4 97 0.2 SW 6 7 3 4 1020.1 1020.0 0.0
23/06:30am 7.4 5.4 7.2 99 0.1 SE 7 9 4 5 1019.7 1019.6 0.0
23/06:00am 7.8 5.5 7.6 99 0.1 SE 9 11 5 6 1019.2 1019.1 0.0
23/05:30am 8.1 6.2 7.5 96 0.3 S 7 11 4 6 1019.4 1019.3 0.0
23/05:00am 8.0 5.6 7.1 94 0.4 SSE 9 11 5 6 1019.3 1019.2 0.0
23/04:30am 8.7 6.4 7.6 93 0.5 S 9 11 5 6 1019.5 1019.4 0.0
23/04:00am 9.3 6.8 8.0 92 0.6 S 11 15 6 8 1019.7 1019.6 0.0
23/03:30am 9.3 6.7 7.8 90 0.7 SSW 11 13 6 7 1019.9 1019.8 0.0
23/03:00am 10.1 7.6 8.2 88 0.9 SSW 11 15 6 8 1020.1 1020.0 0.0
23/02:30am 10.5 7.7 8.5 87 1.0 S 13 19 7 10 1020.2 1020.1 0.0
23/02:00am 10.2 7.7 8.1 87 1.0 SW 11 15 6 8 1020.4 1020.3 0.0
23/01:30am 10.7 7.8 8.2 84 1.2 SW 13 15 7 8 1020.5 1020.4 0.0
23/01:00am 11.4 8.5 8.3 81 1.5 SSW 13 20 7 11 1020.5 1020.4 0.0
23/12:30am 11.7 8.9 8.5 81 1.6 SSW 13 19 7 10 1020.7 1020.6 0.0
23/12:00am 12.1 9.2 8.2 77 1.9 SW 13 19 7 10 1020.9 1020.8 0.0
 
Date/Time
CDT
Temp
°C
App
Temp
°C
Dew
Point
°C
Rel
Hum
%
Delta-T
°C
Wind Press
QNH
hPa
Press
MSL
hPa
Rain since
9am
mm
Dir  Spd
km/h
Gust
km/h
Spd
kts
Gust
kts
22/11:30pm 12.7 9.4 8.2 74 2.2 SW 15 22 8 12 1020.8 1020.7 0.0
22/11:00pm 13.2 9.6 8.4 72 2.4 SSW 17 24 9 13 1020.7 1020.6 0.0
22/10:30pm 13.9 9.9 8.3 69 2.8 SSW 19 28 10 15 1020.6 1020.5 0.0
22/10:00pm 14.4 11.1 8.2 66 3.1 SSW 15 22 8 12 1020.7 1020.6 0.0
22/09:30pm 15.4 11.3 8.0 61 3.7 SW 19 26 10 14 1020.3 1020.2 0.0
22/09:00pm 16.5 12.4 8.0 57 4.3 SW 19 28 10 15 1020.1 1020.0 0.0
22/08:30pm 17.9 14.9 7.9 52 5.1 SSW 13 19 7 10 1019.8 1019.7 0.0
22/08:00pm 18.7 14.9 7.7 48 5.6 SSW 17 24 9 13 1019.6 1019.5 0.0
22/07:30pm 19.0 15.3 7.9 48 5.7 SSW 17 24 9 13 1019.6 1019.5 0.0
22/07:00pm 19.4 15.3 7.9 47 5.9 S 19 30 10 16 1019.2 1019.1 0.0
22/06:30pm 19.9 15.7 7.6 45 6.3 SSW 19 30 10 16 1018.9 1018.8 0.0
22/06:00pm 20.3 15.5 7.4 43 6.6 SSW 22 32 12 17 1018.6 1018.5 0.0
22/05:30pm 20.5 16.1 7.2 42 6.8 SSW 20 30 11 16 1018.5 1018.4 0.0
22/05:00pm 21.2 16.8 6.6 38 7.4 SSW 19 28 10 15 1018.3 1018.2 0.0
22/04:30pm 21.0 16.1 6.8 39 7.2 SSW 22 33 12 18 1018.3 1018.2 0.0
22/04:00pm 21.7 16.7 6.3 36 7.8 SSW 22 35 12 19 1018.2 1018.1 0.0
22/03:30pm 21.7 16.7 6.3 36 7.8 SSW 22 35 12 19 1018.5 1018.4 0.0
22/03:00pm 21.7 17.2 6.0 36 7.9 SSW 19 26 10 14 1018.9 1018.8 0.0
22/02:30pm 21.1 16.4 5.3 35 7.8 SSW 19 26 10 14 1019.3 1019.2 0.0
22/02:00pm 20.3 15.6 6.0 39 7.1 SSW 20 32 11 17 1019.9 1019.8 0.0
22/01:30pm 19.9 15.5 6.5 41 6.7 SSW 19 30 10 16 1020.1 1020.0 0.0
22/01:00pm 19.2 14.2 6.6 44 6.3 S 22 37 12 20 1020.5 1020.4 0.0
22/12:30pm 19.1 14.3 5.6 41 6.6 SSW 20 32 11 17 1021.0 1020.9 0.0
22/12:00pm 18.5 14.2 5.3 42 6.4 SSE 17 28 9 15 1021.4 1021.3 0.0
22/11:30am 17.4 12.1 4.8 43 6.0 SSW 22 32 12 17 1021.8 1021.7 0.0
22/11:00am 17.1 12.4 5.2 45 5.7 SSW 19 28 10 15 1022.2 1022.1 0.0
22/10:30am 15.6 11.0 5.5 51 4.8 SSW 19 35 10 19 1022.6 1022.5 0.0
22/10:00am 14.6 10.4 5.7 55 4.2 SSW 17 26 9 14 1022.8 1022.7 0.0
22/09:30am 13.8 9.4 6.5 61 3.5 S 19 30 10 16 1022.8 1022.7 0.0
22/09:00am 12.3 9.1 8.5 77 1.9 S 15 22 8 12 1022.9 1022.8 0.0
22/08:30am 12.2 9.5 8.8 80 1.7 SSW 13 20 7 11 1023.0 1022.9 0.0
22/08:00am 11.5 8.4 8.9 84 1.3 SW 15 20 8 11 1022.8 1022.7 0.0
22/07:30am 11.0 8.6 8.8 86 1.1 WSW 11 17 6 9 1022.7 1022.6 0.0
22/07:00am 10.3 7.9 8.5 89 0.9 WSW 11 15 6 8 1022.4 1022.3 0.0
22/06:30am 10.3 8.1 8.0 86 1.1 W 9 11 5 6 1021.8 1021.7 0.0
22/06:00am 10.7 8.6 8.2 84 1.2 SSW 9 11 5 6 1022.0 1021.9 0.0
22/05:30am 10.8 8.6 7.7 81 1.5 SSW 9 13 5 7 1021.8 1021.7 0.0
22/05:00am 10.6 7.7 8.3 86 1.1 S 13 24 7 13 1021.9 1021.8 0.0
22/04:30am 11.2 7.9 7.9 80 1.6 S 15 24 8 13 1021.9 1021.8 0.0
22/04:00am 11.1 7.5 8.4 83 1.3 SSW 17 28 9 15 1021.9 1021.8 0.0
22/03:30am 11.8 8.5 7.9 77 1.9 SSW 15 22 8 12 1022.2 1022.1 0.0
22/03:00am 11.8 8.8 7.9 77 1.9 SSW 13 20 7 11 1022.2 1022.1 0.0
22/02:30am 11.7 8.7 7.8 77 1.9 SSW 13 19 7 10 1022.4 1022.3 0.0
22/02:00am 11.4 8.4 7.9 79 1.7 SW 13 19 7 10 1022.8 1022.7 0.0
22/01:30am 10.7 8.5 7.8 82 1.4 SSW 9 13 5 7 1023.2 1023.1 0.0
22/01:00am 11.1 8.2 8.0 81 1.5 SW 13 19 7 10 1023.6 1023.5 0.0
22/12:30am 12.2 8.9 7.9 75 2.1 SSW 15 24 8 13 1023.9 1023.8 0.0
22/12:00am 12.6 8.4 7.4 70 2.5 SW 19 30 10 16 1024.0 1024.0 0.0
 
Date/Time
CDT
Temp
°C
App
Temp
°C
Dew
Point
°C
Rel
Hum
%
Delta-T
°C
Wind Press
QNH
hPa
Press
MSL
hPa
Rain since
9am
mm
Dir  Spd
km/h
Gust
km/h
Spd
kts
Gust
kts
21/11:30pm 13.3 8.6 6.1 61 3.4 S 20 32 11 17 1024.0 1024.0 0.0
21/11:00pm 13.5 9.3 5.6 59 3.7 SSW 17 24 9 13 1024.1 1024.1 0.0
21/10:30pm 13.7 9.0 5.1 56 4.0 SSW 19 30 10 16 1024.3 1024.3 0.0
21/10:00pm 14.0 9.1 4.9 54 4.2 SSW 20 28 11 15 1024.6 1024.6 0.0
21/09:30pm 13.7 8.8 5.1 56 4.0 SSW 20 33 11 18 1024.6 1024.6 0.0
21/09:00pm 13.2 9.4 5.7 60 3.5 S 15 24 8 13 1024.5 1024.5 0.0
21/08:30pm 13.8 9.6 5.7 58 3.8 SSW 17 24 9 13 1024.4 1024.4 0.0
21/08:00pm 14.6 9.4 5.5 54 4.3 SSW 22 32 12 17 1024.0 1024.0 0.0
21/07:30pm 15.9 10.7 5.6 50 4.9 SSW 22 39 12 21 1023.8 1023.7 0.0
21/07:00pm 17.6 12.7 5.3 44 5.9 SSW 20 30 11 16 1023.4 1023.3 0.0
21/06:30pm 18.7 12.5 4.1 38 6.9 SSW 26 35 14 19 1023.2 1023.1 0.0
21/06:00pm 19.3 13.1 4.5 37 7.1 SSW 26 35 14 19 1023.0 1022.9 0.0
21/05:30pm 20.2 13.6 4.1 34 7.7 SSW 28 41 15 22 1023.0 1022.9 0.0
21/05:00pm 21.2 16.1 3.9 32 8.3 S 20 28 11 15 1023.0 1022.9 0.0
21/04:30pm 20.8 14.8 3.6 32 8.2 SSW 24 33 13 18 1023.1 1023.0 0.0
21/04:00pm 21.0 15.9 3.9 32 8.2 SSW 20 37 11 20 1023.2 1023.1 0.0
21/03:30pm 21.2 15.2 3.6 31 8.4 SSW 24 37 13 20 1023.6 1023.5 0.0
21/03:00pm 20.5 14.3 2.0 29 8.5 SSW 24 35 13 19 1024.1 1024.1 0.0
21/02:30pm 20.2 14.9 2.8 31 8.1 SSW 20 30 11 16 1024.6 1024.6 0.0
21/02:00pm 19.8 14.5 2.8 32 7.9 SSW 20 32 11 17 1025.0 1025.0 0.0
21/01:30pm 18.9 13.6 2.9 34 7.4 SSW 20 33 11 18 1025.4 1025.4 0.0
21/01:00pm 18.2 12.9 3.0 36 7.0 SSW 20 30 11 16 1025.9 1025.9 0.0
21/12:30pm 17.9 12.2 2.8 36 6.9 SSW 22 32 12 17 1026.5 1026.5 0.0
21/12:00pm 17.2 11.5 2.9 38 6.5 SSW 22 32 12 17 1027.1 1027.1 0.0
21/11:30am 16.0 10.0 3.5 43 5.7 S 24 32 13 17 1027.7 1027.7 0.0
21/11:00am 14.7 9.4 3.1 45 5.2 SSW 20 35 11 19 1028.3 1028.3 0.0
21/10:30am 14.3 8.6 3.1 47 5.0 SSW 22 33 12 18 1028.7 1028.7 0.0
21/10:00am 13.7 8.5 3.4 50 4.6 S 20 32 11 17 1029.0 1029.0 0.0
21/09:30am 12.6 7.0 3.6 54 4.0 S 22 30 12 16 1029.1 1029.1 0.0

Other Formats:

Comma delimited format used in spreadsheet applications
http://www.bom.gov.au/fwo/IDS60801/IDS60801.94682.axf

JavaScript Object Notation format (JSON) in row-major order
http://www.bom.gov.au/fwo/IDS60801/IDS60801.94682.json